sensor_id;sensor_type;location;lat;lon;timestamp;pressure;altitude;pressure_sealevel;temperature;humidity
10806;BME280;5455;53.224;6.000;2023-05-12T00:00:12;101827.38;;;11.36;100.00
10806;BME280;5455;53.224;6.000;2023-05-12T00:02:42;101818.91;;;11.41;100.00
10806;BME280;5455;53.224;6.000;2023-05-12T00:05:10;101813.00;;;11.42;100.00
10806;BME280;5455;53.224;6.000;2023-05-12T00:07:37;101819.56;;;11.38;100.00
10806;BME280;5455;53.224;6.000;2023-05-12T00:10:04;101812.28;;;11.33;100.00
10806;BME280;5455;53.224;6.000;2023-05-12T00:12:31;101811.75;;;11.40;100.00
10806;BME280;5455;53.224;6.000;2023-05-12T00:14:59;101807.03;;;11.40;100.00
10806;BME280;5455;53.224;6.000;2023-05-12T00:17:27;101806.94;;;11.49;100.00
10806;BME280;5455;53.224;6.000;2023-05-12T00:19:54;101806.94;;;11.49;100.00
10806;BME280;5455;53.224;6.000;2023-05-12T00:22:21;101811.66;;;11.48;100.00
10806;BME280;5455;53.224;6.000;2023-05-12T00:24:48;101811.31;;;11.50;100.00
10806;BME280;5455;53.224;6.000;2023-05-12T00:27:15;101807.06;;;11.52;100.00
10806;BME280;5455;53.224;6.000;2023-05-12T00:29:42;101806.72;;;11.54;100.00
10806;BME280;5455;53.224;6.000;2023-05-12T00:32:09;101800.06;;;11.55;100.00
10806;BME280;5455;53.224;6.000;2023-05-12T00:34:36;101798.56;;;11.57;100.00
10806;BME280;5455;53.224;6.000;2023-05-12T00:37:03;101808.47;;;11.58;100.00
10806;BME280;5455;53.224;6.000;2023-05-12T00:39:30;101801.44;;;11.61;100.00
10806;BME280;5455;53.224;6.000;2023-05-12T00:41:58;101798.34;;;11.63;100.00
10806;BME280;5455;53.224;6.000;2023-05-12T00:44:25;101795.59;;;11.63;100.00
10806;BME280;5455;53.224;6.000;2023-05-12T00:46:53;101796.72;;;11.61;100.00
10806;BME280;5455;53.224;6.000;2023-05-12T00:49:20;101808.09;;;11.60;100.00
10806;BME280;5455;53.224;6.000;2023-05-12T00:51:48;101797.06;;;11.60;100.00
10806;BME280;5455;53.224;6.000;2023-05-12T00:54:15;101806.03;;;11.57;100.00
10806;BME280;5455;53.224;6.000;2023-05-12T00:56:42;101796.16;;;11.56;100.00
10806;BME280;5455;53.224;6.000;2023-05-12T00:59:09;101793.38;;;11.56;100.00
10806;BME280;5455;53.224;6.000;2023-05-12T01:01:39;101803.94;;;11.54;100.00
10806;BME280;5455;53.224;6.000;2023-05-12T01:04:06;101802.00;;;11.54;100.00
10806;BME280;5455;53.224;6.000;2023-05-12T01:09:01;101787.19;;;11.59;100.00
10806;BME280;5455;53.224;6.000;2023-05-12T01:11:29;101793.59;;;11.63;100.00
10806;BME280;5455;53.224;6.000;2023-05-12T01:13:56;101789.47;;;11.57;100.00
10806;BME280;5455;53.224;6.000;2023-05-12T01:16:28;101787.06;;;11.55;100.00
10806;BME280;5455;53.224;6.000;2023-05-12T01:18:57;101785.78;;;11.53;100.00
10806;BME280;5455;53.224;6.000;2023-05-12T01:21:26;101794.75;;;11.50;100.00
10806;BME280;5455;53.224;6.000;2023-05-12T01:23:57;101790.03;;;11.50;100.00
10806;BME280;5455;53.224;6.000;2023-05-12T01:26:27;101791.50;;;11.48;100.00
10806;BME280;5455;53.224;6.000;2023-05-12T01:28:56;101785.31;;;11.51;100.00
10806;BME280;5455;53.224;6.000;2023-05-12T01:31:25;101778.75;;;11.55;100.00
10806;BME280;5455;53.224;6.000;2023-05-12T01:33:52;101784.06;;;11.60;100.00
10806;BME280;5455;53.224;6.000;2023-05-12T01:36:19;101780.97;;;11.62;100.00
10806;BME280;5455;53.224;6.000;2023-05-12T01:38:46;101770.59;;;11.59;100.00
10806;BME280;5455;53.224;6.000;2023-05-12T01:41:13;101783.94;;;11.57;100.00
10806;BME280;5455;53.224;6.000;2023-05-12T01:43:40;101788.78;;;11.60;100.00
10806;BME280;5455;53.224;6.000;2023-05-12T01:46:07;101790.38;;;11.61;100.00
10806;BME280;5455;53.224;6.000;2023-05-12T01:48:38;101796.59;;;11.58;100.00
10806;BME280;5455;53.224;6.000;2023-05-12T01:51:06;101787.31;;;11.63;100.00
10806;BME280;5455;53.224;6.000;2023-05-12T01:53:35;101795.69;;;11.66;100.00
10806;BME280;5455;53.224;6.000;2023-05-12T01:56:02;101789.47;;;11.69;100.00
10806;BME280;5455;53.224;6.000;2023-05-12T01:58:31;101788.00;;;11.59;100.00
10806;BME280;5455;53.224;6.000;2023-05-12T02:00:59;101795.22;;;11.64;100.00
10806;BME280;5455;53.224;6.000;2023-05-12T02:03:27;101788.78;;;11.60;100.00
10806;BME280;5455;53.224;6.000;2023-05-12T02:05:55;101791.44;;;11.56;100.00
10806;BME280;5455;53.224;6.000;2023-05-12T02:08:22;101792.13;;;11.66;100.00
10806;BME280;5455;53.224;6.000;2023-05-12T02:10:49;101791.41;;;11.69;100.00
10806;BME280;5455;53.224;6.000;2023-05-12T02:13:16;101800.41;;;11.66;100.00
10806;BME280;5455;53.224;6.000;2023-05-12T02:15:43;101790.84;;;11.63;100.00
10806;BME280;5455;53.224;6.000;2023-05-12T02:18:11;101797.63;;;11.66;100.00
10806;BME280;5455;53.224;6.000;2023-05-12T02:20:38;101799.25;;;11.67;100.00
10806;BME280;5455;53.224;6.000;2023-05-12T02:23:05;101800.06;;;11.67;100.00
10806;BME280;5455;53.224;6.000;2023-05-12T02:25:32;101785.44;;;11.67;100.00
10806;BME280;5455;53.224;6.000;2023-05-12T02:27:59;101795.50;;;11.71;100.00
10806;BME280;5455;53.224;6.000;2023-05-12T02:30:26;101792.84;;;11.75;100.00
10806;BME280;5455;53.224;6.000;2023-05-12T02:32:53;101793.44;;;11.80;100.00
10806;BME280;5455;53.224;6.000;2023-05-12T02:35:20;101785.25;;;11.84;100.00
10806;BME280;5455;53.224;6.000;2023-05-12T02:37:47;101797.13;;;11.84;100.00
10806;BME280;5455;53.224;6.000;2023-05-12T02:40:14;101799.06;;;11.84;100.00
10806;BME280;5455;53.224;6.000;2023-05-12T02:42:42;101796.31;;;11.84;100.00
10806;BME280;5455;53.224;6.000;2023-05-12T02:45:11;101786.06;;;11.84;100.00
10806;BME280;5455;53.224;6.000;2023-05-12T02:47:39;101793.66;;;11.87;100.00
10806;BME280;5455;53.224;6.000;2023-05-12T02:50:07;101793.66;;;11.87;100.00
10806;BME280;5455;53.224;6.000;2023-05-12T02:52:35;101793.66;;;11.87;100.00
10806;BME280;5455;53.224;6.000;2023-05-12T02:55:03;101796.09;;;11.89;100.00
10806;BME280;5455;53.224;6.000;2023-05-12T02:57:30;101805.22;;;11.89;100.00
10806;BME280;5455;53.224;6.000;2023-05-12T03:00:00;101798.63;;;11.94;100.00
10806;BME280;5455;53.224;6.000;2023-05-12T03:02:30;101796.22;;;12.04;100.00
10806;BME280;5455;53.224;6.000;2023-05-12T03:04:58;101803.72;;;12.04;100.00
10806;BME280;5455;53.224;6.000;2023-05-12T03:07:25;101797.25;;;12.00;100.00
10806;BME280;5455;53.224;6.000;2023-05-12T03:09:53;101795.88;;;12.06;100.00
10806;BME280;5455;53.224;6.000;2023-05-12T03:12:20;101798.31;;;12.07;100.00
10806;BME280;5455;53.224;6.000;2023-05-12T03:14:48;101805.91;;;12.10;100.00
10806;BME280;5455;53.224;6.000;2023-05-12T03:17:15;101798.38;;;12.11;100.00
10806;BME280;5455;53.224;6.000;2023-05-12T03:19:42;101810.84;;;12.17;100.00
10806;BME280;5455;53.224;6.000;2023-05-12T03:22:09;101803.34;;;12.18;100.00
10806;BME280;5455;53.224;6.000;2023-05-12T03:24:36;101806.13;;;12.18;100.00
10806;BME280;5455;53.224;6.000;2023-05-12T03:27:03;101807.50;;;12.24;100.00
10806;BME280;5455;53.224;6.000;2023-05-12T03:29:31;101796.19;;;12.29;100.00
10806;BME280;5455;53.224;6.000;2023-05-12T03:31:58;101797.00;;;12.29;100.00
10806;BME280;5455;53.224;6.000;2023-05-12T03:34:25;101797.47;;;12.31;100.00
10806;BME280;5455;53.224;6.000;2023-05-12T03:36:54;101793.53;;;12.32;100.00
10806;BME280;5455;53.224;6.000;2023-05-12T03:39:22;101802.66;;;12.33;100.00
10806;BME280;5455;53.224;6.000;2023-05-12T03:41:51;101794.34;;;12.33;100.00
10806;BME280;5455;53.224;6.000;2023-05-12T03:44:18;101804.38;;;12.37;100.00
10806;BME280;5455;53.224;6.000;2023-05-12T03:46:45;101800.81;;;12.37;100.00
10806;BME280;5455;53.224;6.000;2023-05-12T03:49:12;101805.63;;;12.40;100.00
10806;BME280;5455;53.224;6.000;2023-05-12T03:51:39;101807.22;;;12.41;100.00
10806;BME280;5455;53.224;6.000;2023-05-12T03:54:06;101806.09;;;12.42;100.00
10806;BME280;5455;53.224;6.000;2023-05-12T03:56:33;101812.00;;;12.40;100.00
10806;BME280;5455;53.224;6.000;2023-05-12T03:59:01;101799.88;;;12.45;100.00
10806;BME280;5455;53.224;6.000;2023-05-12T04:01:29;101811.97;;;12.52;100.00
10806;BME280;5455;53.224;6.000;2023-05-12T04:03:57;101804.13;;;12.54;100.00
10806;BME280;5455;53.224;6.000;2023-05-12T04:06:24;101814.38;;;12.54;100.00
10806;BME280;5455;53.224;6.000;2023-05-12T04:08:51;101810.47;;;12.55;100.00
10806;BME280;5455;53.224;6.000;2023-05-12T04:11:18;101811.59;;;12.54;100.00
10806;BME280;5455;53.224;6.000;2023-05-12T04:13:44;101805.25;;;12.53;100.00
10806;BME280;5455;53.224;6.000;2023-05-12T04:16:12;101799.63;;;12.50;100.00
10806;BME280;5455;53.224;6.000;2023-05-12T04:18:39;101815.44;;;12.49;100.00
10806;BME280;5455;53.224;6.000;2023-05-12T04:21:06;101798.84;;;12.49;100.00
10806;BME280;5455;53.224;6.000;2023-05-12T04:23:33;101806.78;;;12.51;100.00
10806;BME280;5455;53.224;6.000;2023-05-12T04:26:03;101816.31;;;12.53;100.00
10806;BME280;5455;53.224;6.000;2023-05-12T04:28:31;101815.63;;;12.56;100.00
10806;BME280;5455;53.224;6.000;2023-05-12T04:31:04;101817.38;;;12.61;100.00
10806;BME280;5455;53.224;6.000;2023-05-12T04:33:33;101822.19;;;12.64;100.00
10806;BME280;5455;53.224;6.000;2023-05-12T04:36:00;101828.75;;;12.71;100.00
10806;BME280;5455;53.224;6.000;2023-05-12T04:38:28;101829.31;;;12.77;100.00
10806;BME280;5455;53.224;6.000;2023-05-12T04:40:59;101824.34;;;12.83;100.00
10806;BME280;5455;53.224;6.000;2023-05-12T04:43:26;101832.66;;;12.83;100.00
10806;BME280;5455;53.224;6.000;2023-05-12T04:45:57;101828.25;;;12.82;100.00
10806;BME280;5455;53.224;6.000;2023-05-12T04:48:27;101829.97;;;12.86;100.00
10806;BME280;5455;53.224;6.000;2023-05-12T04:50:57;101828.13;;;12.90;100.00
10806;BME280;5455;53.224;6.000;2023-05-12T04:53:28;101828.94;;;12.91;100.00
10806;BME280;5455;53.224;6.000;2023-05-12T04:56:00;101834.56;;;12.94;100.00
10806;BME280;5455;53.224;6.000;2023-05-12T04:58:30;101841.22;;;13.05;100.00
10806;BME280;5455;53.224;6.000;2023-05-12T05:00:58;101839.97;;;13.15;100.00
10806;BME280;5455;53.224;6.000;2023-05-12T05:03:25;101844.19;;;13.24;100.00
10806;BME280;5455;53.224;6.000;2023-05-12T05:05:53;101840.00;;;13.31;100.00
10806;BME280;5455;53.224;6.000;2023-05-12T05:08:20;101843.06;;;13.41;100.00
10806;BME280;5455;53.224;6.000;2023-05-12T05:10:47;101848.22;;;13.55;100.00
10806;BME280;5455;53.224;6.000;2023-05-12T05:13:14;101851.59;;;13.64;100.00
10806;BME280;5455;53.224;6.000;2023-05-12T05:15:52;101851.84;;;13.59;100.00
10806;BME280;5455;53.224;6.000;2023-05-12T05:18:22;101856.19;;;13.72;100.00
10806;BME280;5455;53.224;6.000;2023-05-12T05:20:51;101861.19;;;13.82;100.00
10806;BME280;5455;53.224;6.000;2023-05-12T05:23:25;101867.19;;;13.84;100.00
10806;BME280;5455;53.224;6.000;2023-05-12T05:25:52;101864.53;;;13.88;100.00
10806;BME280;5455;53.224;6.000;2023-05-12T05:28:19;101872.75;;;14.00;100.00
10806;BME280;5455;53.224;6.000;2023-05-12T05:30:46;101872.22;;;14.10;100.00
10806;BME280;5455;53.224;6.000;2023-05-12T05:33:14;101875.97;;;14.02;100.00
10806;BME280;5455;53.224;6.000;2023-05-12T05:35:41;101880.72;;;14.01;100.00
10806;BME280;5455;53.224;6.000;2023-05-12T05:38:09;101877.84;;;14.13;100.00
10806;BME280;5455;53.224;6.000;2023-05-12T05:40:36;101880.75;;;14.32;100.00
10806;BME280;5455;53.224;6.000;2023-05-12T05:43:18;101879.91;;;14.32;100.00
10806;BME280;5455;53.224;6.000;2023-05-12T05:45:45;101887.59;;;14.23;100.00
10806;BME280;5455;53.224;6.000;2023-05-12T05:48:15;101891.34;;;14.30;100.00
10806;BME280;5455;53.224;6.000;2023-05-12T05:50:42;101898.88;;;14.30;100.00
10806;BME280;5455;53.224;6.000;2023-05-12T05:53:09;101894.44;;;14.41;100.00
10806;BME280;5455;53.224;6.000;2023-05-12T05:55:36;101893.88;;;14.51;100.00
10806;BME280;5455;53.224;6.000;2023-05-12T05:58:03;101906.91;;;14.66;100.00
10806;BME280;5455;53.224;6.000;2023-05-12T06:00:31;101904.31;;;14.73;100.00
10806;BME280;5455;53.224;6.000;2023-05-12T06:02:58;101901.63;;;14.77;100.00
10806;BME280;5455;53.224;6.000;2023-05-12T06:05:25;101907.69;;;14.82;100.00
10806;BME280;5455;53.224;6.000;2023-05-12T06:07:52;101905.44;;;14.88;100.00
10806;BME280;5455;53.224;6.000;2023-05-12T06:10:20;101910.19;;;14.87;100.00
10806;BME280;5455;53.224;6.000;2023-05-12T06:12:47;101920.22;;;14.92;100.00
10806;BME280;5455;53.224;6.000;2023-05-12T06:15:16;101918.91;;;14.86;100.00
10806;BME280;5455;53.224;6.000;2023-05-12T06:17:43;101920.38;;;14.99;100.00
10806;BME280;5455;53.224;6.000;2023-05-12T06:20:10;101925.28;;;15.06;100.00
10806;BME280;5455;53.224;6.000;2023-05-12T06:22:39;101930.22;;;14.97;100.00
10806;BME280;5455;53.224;6.000;2023-05-12T06:25:08;101924.16;;;14.91;100.00
10806;BME280;5455;53.224;6.000;2023-05-12T06:27:37;101933.72;;;14.94;100.00
10806;BME280;5455;53.224;6.000;2023-05-12T06:30:05;101933.09;;;15.00;100.00
10806;BME280;5455;53.224;6.000;2023-05-12T06:32:32;101926.94;;;14.91;100.00
10806;BME280;5455;53.224;6.000;2023-05-12T06:34:59;101927.38;;;14.93;100.00
10806;BME280;5455;53.224;6.000;2023-05-12T06:37:27;101939.53;;;15.04;100.00
10806;BME280;5455;53.224;6.000;2023-05-12T06:39:53;101937.03;;;14.99;100.00
10806;BME280;5455;53.224;6.000;2023-05-12T06:42:23;101948.09;;;14.96;100.00
10806;BME280;5455;53.224;6.000;2023-05-12T06:44:50;101942.16;;;14.97;100.00
10806;BME280;5455;53.224;6.000;2023-05-12T06:47:19;101945.19;;;15.08;100.00
10806;BME280;5455;53.224;6.000;2023-05-12T06:49:48;101943.75;;;15.14;100.00
10806;BME280;5455;53.224;6.000;2023-05-12T06:52:15;101943.16;;;15.24;100.00
10806;BME280;5455;53.224;6.000;2023-05-12T06:54:43;101947.75;;;15.35;100.00
10806;BME280;5455;53.224;6.000;2023-05-12T06:57:09;101948.22;;;15.37;100.00
10806;BME280;5455;53.224;6.000;2023-05-12T06:59:36;101960.94;;;15.38;100.00
10806;BME280;5455;53.224;6.000;2023-05-12T07:02:03;101959.34;;;15.37;100.00
10806;BME280;5455;53.224;6.000;2023-05-12T07:04:31;101963.72;;;15.38;100.00
10806;BME280;5455;53.224;6.000;2023-05-12T07:06:58;101969.72;;;15.40;100.00
10806;BME280;5455;53.224;6.000;2023-05-12T07:09:25;101975.19;;;15.53;100.00
10806;BME280;5455;53.224;6.000;2023-05-12T07:11:52;101963.19;;;15.68;100.00
10806;BME280;5455;53.224;6.000;2023-05-12T07:14:19;101971.50;;;15.87;100.00
10806;BME280;5455;53.224;6.000;2023-05-12T07:16:46;101977.84;;;16.07;100.00
10806;BME280;5455;53.224;6.000;2023-05-12T07:19:13;101979.91;;;16.32;100.00
10806;BME280;5455;53.224;6.000;2023-05-12T07:21:40;101978.63;;;16.49;100.00
10806;BME280;5455;53.224;6.000;2023-05-12T07:24:07;101983.28;;;16.64;100.00
10806;BME280;5455;53.224;6.000;2023-05-12T07:26:34;101977.88;;;16.75;100.00
10806;BME280;5455;53.224;6.000;2023-05-12T07:29:01;101983.44;;;16.75;100.00
10806;BME280;5455;53.224;6.000;2023-05-12T07:31:29;101985.16;;;16.83;100.00
10806;BME280;5455;53.224;6.000;2023-05-12T07:33:57;101985.63;;;16.85;100.00
10806;BME280;5455;53.224;6.000;2023-05-12T07:36:24;101983.19;;;17.09;100.00
10806;BME280;5455;53.224;6.000;2023-05-12T07:38:51;101993.22;;;17.14;100.00
10806;BME280;5455;53.224;6.000;2023-05-12T07:41:18;101992.41;;;17.14;100.00
10806;BME280;5455;53.224;6.000;2023-05-12T07:43:45;101988.53;;;17.22;100.00
10806;BME280;5455;53.224;6.000;2023-05-12T07:46:12;101990.22;;;17.26;100.00
10806;BME280;5455;53.224;6.000;2023-05-12T07:48:39;101989.81;;;17.28;100.00
10806;BME280;5455;53.224;6.000;2023-05-12T07:51:09;101984.06;;;17.14;100.00
10806;BME280;5455;53.224;6.000;2023-05-12T07:53:43;101985.97;;;17.09;100.00
10806;BME280;5455;53.224;6.000;2023-05-12T07:56:10;101982.19;;;17.21;100.00
10806;BME280;5455;53.224;6.000;2023-05-12T07:58:37;101983.69;;;17.15;100.00
10806;BME280;5455;53.224;6.000;2023-05-12T08:01:04;102000.97;;;17.28;100.00
10806;BME280;5455;53.224;6.000;2023-05-12T08:03:33;101998.13;;;17.50;100.00
10806;BME280;5455;53.224;6.000;2023-05-12T08:06:00;102001.84;;;17.91;100.00
10806;BME280;5455;53.224;6.000;2023-05-12T08:08:29;102003.75;;;18.21;100.00
10806;BME280;5455;53.224;6.000;2023-05-12T08:10:56;102001.56;;;18.40;100.00
10806;BME280;5455;53.224;6.000;2023-05-12T08:13:22;102007.31;;;18.54;100.00
10806;BME280;5455;53.224;6.000;2023-05-12T08:15:49;102005.19;;;18.41;100.00
10806;BME280;5455;53.224;6.000;2023-05-12T08:18:17;102003.97;;;18.42;100.00
10806;BME280;5455;53.224;6.000;2023-05-12T08:20:44;102012.13;;;18.57;100.00
10806;BME280;5455;53.224;6.000;2023-05-12T08:23:11;102011.13;;;18.80;100.00
10806;BME280;5455;53.224;6.000;2023-05-12T08:25:38;102010.41;;;18.90;100.00
10806;BME280;5455;53.224;6.000;2023-05-12T08:28:06;102015.22;;;18.89;100.00
10806;BME280;5455;53.224;6.000;2023-05-12T08:30:35;102011.94;;;18.84;100.00
10806;BME280;5455;53.224;6.000;2023-05-12T08:33:02;102018.91;;;19.04;100.00
10806;BME280;5455;53.224;6.000;2023-05-12T08:35:30;102022.31;;;19.34;100.00
10806;BME280;5455;53.224;6.000;2023-05-12T08:37:57;102019.22;;;19.50;100.00
10806;BME280;5455;53.224;6.000;2023-05-12T08:40:28;102019.91;;;19.33;100.00
10806;BME280;5455;53.224;6.000;2023-05-12T08:45:48;102017.75;;;19.73;100.00
10806;BME280;5455;53.224;6.000;2023-05-12T08:48:17;102023.84;;;20.04;100.00
10806;BME280;5455;53.224;6.000;2023-05-12T08:50:48;102021.44;;;19.95;100.00
10806;BME280;5455;53.224;6.000;2023-05-12T08:53:18;102032.22;;;19.90;100.00
10806;BME280;5455;53.224;6.000;2023-05-12T08:55:48;102025.09;;;20.13;100.00
10806;BME280;5455;53.224;6.000;2023-05-12T08:58:36;102029.97;;;20.38;100.00
10806;BME280;5455;53.224;6.000;2023-05-12T09:01:10;102040.38;;;20.26;100.00
10806;BME280;5455;53.224;6.000;2023-05-12T09:03:37;102030.38;;;20.29;100.00
10806;BME280;5455;53.224;6.000;2023-05-12T09:06:05;102032.72;;;20.23;100.00
10806;BME280;5455;53.224;6.000;2023-05-12T09:08:33;102030.78;;;20.27;100.00
10806;BME280;5455;53.224;6.000;2023-05-12T09:11:01;102031.16;;;20.29;100.00
10806;BME280;5455;53.224;6.000;2023-05-12T09:13:36;102037.16;;;20.28;100.00
10806;BME280;5455;53.224;6.000;2023-05-12T09:16:10;102036.38;;;20.31;100.00
10806;BME280;5455;53.224;6.000;2023-05-12T09:18:51;102029.13;;;20.23;100.00
10806;BME280;5455;53.224;6.000;2023-05-12T09:21:19;102031.13;;;20.22;100.00
10806;BME280;5455;53.224;6.000;2023-05-12T09:26:23;102042.72;;;20.21;100.00
10806;BME280;5455;53.224;6.000;2023-05-12T09:28:52;102040.38;;;20.26;100.00
10806;BME280;5455;53.224;6.000;2023-05-12T09:31:21;102044.72;;;20.20;100.00
10806;BME280;5455;53.224;6.000;2023-05-12T09:33:51;102046.81;;;20.41;100.00
10806;BME280;5455;53.224;6.000;2023-05-12T09:36:23;102039.22;;;20.42;100.00
10806;BME280;5455;53.224;6.000;2023-05-12T09:39:04;102049.25;;;20.67;100.00
10806;BME280;5455;53.224;6.000;2023-05-12T09:41:40;102053.22;;;20.52;100.00
10806;BME280;5455;53.224;6.000;2023-05-12T09:44:08;102047.63;;;20.70;100.00
10806;BME280;5455;53.224;6.000;2023-05-12T09:46:36;102047.25;;;20.89;100.00
10806;BME280;5455;53.224;6.000;2023-05-12T09:49:05;102048.84;;;20.69;100.00
10806;BME280;5455;53.224;6.000;2023-05-12T09:51:32;102060.47;;;20.99;100.00
10806;BME280;5455;53.224;6.000;2023-05-12T09:53:59;102053.28;;;21.16;100.00
10806;BME280;5455;53.224;6.000;2023-05-12T09:56:28;102066.47;;;20.94;100.00
10806;BME280;5455;53.224;6.000;2023-05-12T09:58:56;102054.06;;;20.95;100.00
10806;BME280;5455;53.224;6.000;2023-05-12T10:01:23;102051.69;;;20.94;100.00
10806;BME280;5455;53.224;6.000;2023-05-12T10:03:53;102052.09;;;21.24;100.00
10806;BME280;5455;53.224;6.000;2023-05-12T10:06:30;102055.69;;;21.14;100.00
10806;BME280;5455;53.224;6.000;2023-05-12T10:11:29;102050.06;;;20.96;100.00
10806;BME280;5455;53.224;6.000;2023-05-12T10:13:58;102054.88;;;21.03;100.00
10806;BME280;5455;53.224;6.000;2023-05-12T10:16:29;102048.88;;;21.29;100.00
10806;BME280;5455;53.224;6.000;2023-05-12T10:18:57;102045.63;;;21.34;100.00
10806;BME280;5455;53.224;6.000;2023-05-12T10:21:24;102055.28;;;21.19;100.00
10806;BME280;5455;53.224;6.000;2023-05-12T10:23:53;102054.84;;;21.06;100.00
10806;BME280;5455;53.224;6.000;2023-05-12T10:26:20;102064.13;;;21.21;100.00
10806;BME280;5455;53.224;6.000;2023-05-12T10:28:49;102062.06;;;21.39;100.00
10806;BME280;5455;53.224;6.000;2023-05-12T10:31:18;102064.50;;;21.26;100.00
10806;BME280;5455;53.224;6.000;2023-05-12T10:33:59;102059.63;;;21.62;100.00
10806;BME280;5455;53.224;6.000;2023-05-12T10:36:26;102065.94;;;21.87;100.00
10806;BME280;5455;53.224;6.000;2023-05-12T10:38:55;102060.75;;;21.86;100.00
10806;BME280;5455;53.224;6.000;2023-05-12T10:41:29;102058.97;;;22.24;100.00
10806;BME280;5455;53.224;6.000;2023-05-12T10:43:57;102061.03;;;22.20;100.00
10806;BME280;5455;53.224;6.000;2023-05-12T10:46:24;102068.94;;;22.39;91.85
10806;BME280;5455;53.224;6.000;2023-05-12T10:54:02;102050.59;;;22.17;98.38
10806;BME280;5455;53.224;6.000;2023-05-12T10:56:41;102055.56;;;21.67;96.47
10806;BME280;5455;53.224;6.000;2023-05-12T10:59:11;102054.41;;;21.57;100.00
10806;BME280;5455;53.224;6.000;2023-05-12T11:01:40;102067.28;;;21.44;96.03
10806;BME280;5455;53.224;6.000;2023-05-12T11:04:13;102060.47;;;21.38;100.00
10806;BME280;5455;53.224;6.000;2023-05-12T11:06:42;102063.69;;;21.26;99.24
10806;BME280;5455;53.224;6.000;2023-05-12T11:09:11;102054.47;;;21.22;96.78
10806;BME280;5455;53.224;6.000;2023-05-12T11:11:39;102057.28;;;21.25;96.32
10806;BME280;5455;53.224;6.000;2023-05-12T11:14:07;102058.84;;;21.44;100.00
10806;BME280;5455;53.224;6.000;2023-05-12T11:16:41;102059.66;;;21.45;98.90
10806;BME280;5455;53.224;6.000;2023-05-12T11:19:09;102062.81;;;21.57;96.38
10806;BME280;5455;53.224;6.000;2023-05-12T11:21:37;102069.66;;;21.49;98.77
10806;BME280;5455;53.224;6.000;2023-05-12T11:24:04;102057.53;;;21.94;97.90
10806;BME280;5455;53.224;6.000;2023-05-12T11:26:32;102061.81;;;22.20;91.07
10806;BME280;5455;53.224;6.000;2023-05-12T11:29:02;102058.59;;;22.22;91.08
10806;BME280;5455;53.224;6.000;2023-05-12T11:31:29;102059.88;;;22.07;87.14
10806;BME280;5455;53.224;6.000;2023-05-12T11:34:05;102063.50;;;22.04;89.51
10806;BME280;5455;53.224;6.000;2023-05-12T11:36:41;102061.78;;;22.27;89.53
10806;BME280;5455;53.224;6.000;2023-05-12T11:39:18;102057.78;;;22.21;87.58
10806;BME280;5455;53.224;6.000;2023-05-12T11:41:47;102060.63;;;22.14;88.08
10806;BME280;5455;53.224;6.000;2023-05-12T11:44:18;102056.50;;;22.40;90.89
10806;BME280;5455;53.224;6.000;2023-05-12T11:46:53;102060.44;;;22.53;88.11
10806;BME280;5455;53.224;6.000;2023-05-12T11:49:20;102063.88;;;22.78;83.71
10806;BME280;5455;53.224;6.000;2023-05-12T11:51:50;102064.22;;;22.84;84.93
10806;BME280;5455;53.224;6.000;2023-05-12T11:54:17;102060.75;;;22.66;88.42
10806;BME280;5455;53.224;6.000;2023-05-12T11:56:51;102062.22;;;22.22;98.55
10806;BME280;5455;53.224;6.000;2023-05-12T11:59:26;102056.19;;;22.20;94.12
10806;BME280;5455;53.224;6.000;2023-05-12T12:01:53;102062.06;;;22.47;96.85
10806;BME280;5455;53.224;6.000;2023-05-12T12:06:59;102061.09;;;22.71;92.57
10806;BME280;5455;53.224;6.000;2023-05-12T12:09:34;102067.06;;;22.15;94.08
10806;BME280;5455;53.224;6.000;2023-05-12T12:12:03;102063.44;;;22.14;99.96
10806;BME280;5455;53.224;6.000;2023-05-12T12:14:31;102069.34;;;22.37;100.00
10806;BME280;5455;53.224;6.000;2023-05-12T12:16:59;102066.53;;;22.41;97.78
10806;BME280;5455;53.224;6.000;2023-05-12T12:19:26;102070.50;;;22.47;91.28
10806;BME280;5455;53.224;6.000;2023-05-12T12:21:54;102059.88;;;22.03;94.04
10806;BME280;5455;53.224;6.000;2023-05-12T12:24:22;102065.22;;;21.62;95.95
10806;BME280;5455;53.224;6.000;2023-05-12T12:26:49;102063.63;;;21.65;96.97
10806;BME280;5455;53.224;6.000;2023-05-12T12:29:17;102069.97;;;21.86;96.31
10806;BME280;5455;53.224;6.000;2023-05-12T12:31:44;102067.22;;;21.69;96.82
10806;BME280;5455;53.224;6.000;2023-05-12T12:34:11;102068.78;;;21.77;95.85
10806;BME280;5455;53.224;6.000;2023-05-12T12:36:38;102067.56;;;21.95;91.45
10806;BME280;5455;53.224;6.000;2023-05-12T12:39:05;102070.31;;;22.06;95.87
10806;BME280;5455;53.224;6.000;2023-05-12T12:41:32;102068.09;;;22.45;91.36
10806;BME280;5455;53.224;6.000;2023-05-12T12:44:00;102070.38;;;21.81;93.54
10806;BME280;5455;53.224;6.000;2023-05-12T12:46:27;102069.66;;;21.56;99.07
10806;BME280;5455;53.224;6.000;2023-05-12T12:48:54;102068.03;;;21.55;98.76
10806;BME280;5455;53.224;6.000;2023-05-12T12:51:22;102066.00;;;21.66;100.00
10806;BME280;5455;53.224;6.000;2023-05-12T12:53:58;102078.47;;;21.69;98.85
10806;BME280;5455;53.224;6.000;2023-05-12T12:56:25;102078.84;;;21.74;100.00
10806;BME280;5455;53.224;6.000;2023-05-12T12:58:51;102076.47;;;21.59;99.49
10806;BME280;5455;53.224;6.000;2023-05-12T13:01:19;102072.47;;;21.53;100.00
10806;BME280;5455;53.224;6.000;2023-05-12T13:03:46;102079.34;;;21.23;100.00
10806;BME280;5455;53.224;6.000;2023-05-12T13:06:13;102072.50;;;20.89;100.00
10806;BME280;5455;53.224;6.000;2023-05-12T13:08:39;102070.91;;;20.84;100.00
10806;BME280;5455;53.224;6.000;2023-05-12T13:11:07;102073.31;;;21.25;100.00
10806;BME280;5455;53.224;6.000;2023-05-12T13:13:35;102079.31;;;21.45;100.00
10806;BME280;5455;53.224;6.000;2023-05-12T13:16:03;102071.25;;;21.61;98.88